sensor_id;sensor_type;location;lat;lon;timestamp;temperature;humidity
29731;DHT22;16639;51.488;0.152;2023-03-23T00:01:05;11.80;99.90
29731;DHT22;16639;51.488;0.152;2023-03-23T00:03:32;11.80;99.90
29731;DHT22;16639;51.488;0.152;2023-03-23T00:05:59;12.20;99.90
29731;DHT22;16639;51.488;0.152;2023-03-23T00:08:34;11.70;99.90
29731;DHT22;16639;51.488;0.152;2023-03-23T00:11:19;11.70;99.90
29731;DHT22;16639;51.488;0.152;2023-03-23T00:13:47;11.70;99.90
29731;DHT22;16639;51.488;0.152;2023-03-23T00:16:21;11.60;99.90
29731;DHT22;16639;51.488;0.152;2023-03-23T00:18:56;11.20;99.90
29731;DHT22;16639;51.488;0.152;2023-03-23T00:21:25;11.70;99.90
29731;DHT22;16639;51.488;0.152;2023-03-23T00:26:35;11.70;99.90
29731;DHT22;16639;51.488;0.152;2023-03-23T00:29:03;11.70;99.90
29731;DHT22;16639;51.488;0.152;2023-03-23T00:31:29;11.70;99.90
29731;DHT22;16639;51.488;0.152;2023-03-23T00:33:59;11.70;99.90
29731;DHT22;16639;51.488;0.152;2023-03-23T00:36:27;11.70;99.90
29731;DHT22;16639;51.488;0.152;2023-03-23T00:38:54;11.30;99.90
29731;DHT22;16639;51.488;0.152;2023-03-23T00:41:24;11.60;99.90
29731;DHT22;16639;51.488;0.152;2023-03-23T00:43:58;11.60;99.90
29731;DHT22;16639;51.488;0.152;2023-03-23T00:46:27;11.60;99.90
29731;DHT22;16639;51.488;0.152;2023-03-23T00:48:56;11.60;99.90
29731;DHT22;16639;51.488;0.152;2023-03-23T00:51:23;11.70;99.90
29731;DHT22;16639;51.488;0.152;2023-03-23T00:53:50;11.70;99.90
29731;DHT22;16639;51.488;0.152;2023-03-23T00:56:16;11.70;99.90
29731;DHT22;16639;51.488;0.152;2023-03-23T00:58:43;11.70;99.90
29731;DHT22;16639;51.488;0.152;2023-03-23T01:01:09;11.80;99.90
29731;DHT22;16639;51.488;0.152;2023-03-23T01:03:36;11.80;99.90
29731;DHT22;16639;51.488;0.152;2023-03-23T01:06:10;11.80;99.90
29731;DHT22;16639;51.488;0.152;2023-03-23T01:08:40;11.80;99.90
29731;DHT22;16639;51.488;0.152;2023-03-23T01:11:15;12.30;99.90
29731;DHT22;16639;51.488;0.152;2023-03-23T01:13:44;11.70;99.90
29731;DHT22;16639;51.488;0.152;2023-03-23T01:16:10;11.70;99.90
29731;DHT22;16639;51.488;0.152;2023-03-23T01:18:39;11.70;99.90
29731;DHT22;16639;51.488;0.152;2023-03-23T01:21:07;11.70;99.90
29731;DHT22;16639;51.488;0.152;2023-03-23T01:23:34;11.70;99.90
29731;DHT22;16639;51.488;0.152;2023-03-23T01:26:06;11.70;99.90
29731;DHT22;16639;51.488;0.152;2023-03-23T01:28:34;11.70;99.90
29731;DHT22;16639;51.488;0.152;2023-03-23T01:31:03;11.70;99.90
29731;DHT22;16639;51.488;0.152;2023-03-23T01:33:30;11.70;99.90
29731;DHT22;16639;51.488;0.152;2023-03-23T01:36:03;11.60;99.90
29731;DHT22;16639;51.488;0.152;2023-03-23T01:38:31;11.60;99.90
29731;DHT22;16639;51.488;0.152;2023-03-23T01:40:57;11.60;99.90
29731;DHT22;16639;51.488;0.152;2023-03-23T01:43:23;11.40;99.90
29731;DHT22;16639;51.488;0.152;2023-03-23T01:45:50;11.60;99.90
29731;DHT22;16639;51.488;0.152;2023-03-23T01:48:37;11.60;99.90
29731;DHT22;16639;51.488;0.152;2023-03-23T01:51:11;11.60;99.90
29731;DHT22;16639;51.488;0.152;2023-03-23T01:53:48;11.60;99.90
29731;DHT22;16639;51.488;0.152;2023-03-23T01:56:17;11.50;99.90
29731;DHT22;16639;51.488;0.152;2023-03-23T01:58:45;11.40;99.90
29731;DHT22;16639;51.488;0.152;2023-03-23T02:01:13;11.50;99.90
29731;DHT22;16639;51.488;0.152;2023-03-23T02:03:44;12.20;99.90
29731;DHT22;16639;51.488;0.152;2023-03-23T02:06:12;11.50;99.90
29731;DHT22;16639;51.488;0.152;2023-03-23T02:08:38;11.40;99.90
29731;DHT22;16639;51.488;0.152;2023-03-23T02:11:18;11.40;99.90
29731;DHT22;16639;51.488;0.152;2023-03-23T02:13:46;11.30;99.90
29731;DHT22;16639;51.488;0.152;2023-03-23T02:16:19;11.30;99.90
29731;DHT22;16639;51.488;0.152;2023-03-23T02:27:20;11.10;99.90
29731;DHT22;16639;51.488;0.152;2023-03-23T02:38:48;11.00;99.90
29731;DHT22;16639;51.488;0.152;2023-03-23T02:41:24;11.00;99.90
29731;DHT22;16639;51.488;0.152;2023-03-23T02:43:52;10.90;99.90
29731;DHT22;16639;51.488;0.152;2023-03-23T02:46:20;11.00;99.90
29731;DHT22;16639;51.488;0.152;2023-03-23T02:48:50;11.00;99.90
29731;DHT22;16639;51.488;0.152;2023-03-23T02:51:19;11.00;99.90
29731;DHT22;16639;51.488;0.152;2023-03-23T02:53:47;11.00;99.90
29731;DHT22;16639;51.488;0.152;2023-03-23T02:56:16;11.00;99.90
29731;DHT22;16639;51.488;0.152;2023-03-23T02:58:43;11.00;99.90
29731;DHT22;16639;51.488;0.152;2023-03-23T03:04:26;10.70;99.90
29731;DHT22;16639;51.488;0.152;2023-03-23T03:07:26;10.90;99.90
29731;DHT22;16639;51.488;0.152;2023-03-23T03:12:45;11.00;99.90
29731;DHT22;16639;51.488;0.152;2023-03-23T03:20:25;10.80;99.90
29731;DHT22;16639;51.488;0.152;2023-03-23T03:22:54;11.00;99.90
29731;DHT22;16639;51.488;0.152;2023-03-23T03:25:21;11.40;99.90
29731;DHT22;16639;51.488;0.152;2023-03-23T03:27:49;10.80;99.90
29731;DHT22;16639;51.488;0.152;2023-03-23T03:30:21;10.80;99.90
29731;DHT22;16639;51.488;0.152;2023-03-23T03:32:51;10.80;99.90
29731;DHT22;16639;51.488;0.152;2023-03-23T03:35:23;10.80;99.90
29731;DHT22;16639;51.488;0.152;2023-03-23T03:37:50;11.50;99.90
29731;DHT22;16639;51.488;0.152;2023-03-23T03:40:19;10.80;99.90
29731;DHT22;16639;51.488;0.152;2023-03-23T03:42:45;10.80;99.90
29731;DHT22;16639;51.488;0.152;2023-03-23T03:45:15;10.80;99.90
29731;DHT22;16639;51.488;0.152;2023-03-23T03:47:41;10.70;99.90
29731;DHT22;16639;51.488;0.152;2023-03-23T03:50:08;11.70;99.90
29731;DHT22;16639;51.488;0.152;2023-03-23T03:52:36;10.70;99.90
29731;DHT22;16639;51.488;0.152;2023-03-23T03:55:05;10.70;99.90
29731;DHT22;16639;51.488;0.152;2023-03-23T03:57:33;10.80;99.90
29731;DHT22;16639;51.488;0.152;2023-03-23T03:59:59;10.70;99.90
29731;DHT22;16639;51.488;0.152;2023-03-23T04:02:26;10.70;99.90
29731;DHT22;16639;51.488;0.152;2023-03-23T04:04:52;10.50;99.90
29731;DHT22;16639;51.488;0.152;2023-03-23T04:07:18;10.60;99.90
29731;DHT22;16639;51.488;0.152;2023-03-23T04:09:45;10.60;99.90
29731;DHT22;16639;51.488;0.152;2023-03-23T04:12:14;10.60;99.90
29731;DHT22;16639;51.488;0.152;2023-03-23T04:14:42;10.60;99.90
29731;DHT22;16639;51.488;0.152;2023-03-23T04:17:08;10.60;99.90
29731;DHT22;16639;51.488;0.152;2023-03-23T04:19:37;10.50;99.90
29731;DHT22;16639;51.488;0.152;2023-03-23T04:22:05;10.50;99.90
29731;DHT22;16639;51.488;0.152;2023-03-23T04:24:31;10.50;99.90
29731;DHT22;16639;51.488;0.152;2023-03-23T04:26:59;10.50;99.90
29731;DHT22;16639;51.488;0.152;2023-03-23T04:29:26;10.40;99.90
29731;DHT22;16639;51.488;0.152;2023-03-23T04:31:52;10.50;99.90
29731;DHT22;16639;51.488;0.152;2023-03-23T04:34:19;10.50;99.90
29731;DHT22;16639;51.488;0.152;2023-03-23T04:36:45;10.40;99.90
29731;DHT22;16639;51.488;0.152;2023-03-23T04:39:12;10.40;99.90
29731;DHT22;16639;51.488;0.152;2023-03-23T04:41:40;10.40;99.90
29731;DHT22;16639;51.488;0.152;2023-03-23T04:44:07;10.40;99.90
29731;DHT22;16639;51.488;0.152;2023-03-23T04:46:33;10.40;99.90
29731;DHT22;16639;51.488;0.152;2023-03-23T04:49:00;10.40;99.90
29731;DHT22;16639;51.488;0.152;2023-03-23T04:51:27;10.40;99.90
29731;DHT22;16639;51.488;0.152;2023-03-23T04:53:54;10.40;99.90
29731;DHT22;16639;51.488;0.152;2023-03-23T04:56:22;10.40;99.90
29731;DHT22;16639;51.488;0.152;2023-03-23T04:58:48;10.40;99.90
29731;DHT22;16639;51.488;0.152;2023-03-23T05:01:15;10.40;99.90
29731;DHT22;16639;51.488;0.152;2023-03-23T05:03:44;10.70;99.90
29731;DHT22;16639;51.488;0.152;2023-03-23T05:06:10;10.40;99.90
29731;DHT22;16639;51.488;0.152;2023-03-23T05:08:37;10.30;99.90
29731;DHT22;16639;51.488;0.152;2023-03-23T05:11:05;10.30;99.90
29731;DHT22;16639;51.488;0.152;2023-03-23T05:13:32;11.30;99.90
29731;DHT22;16639;51.488;0.152;2023-03-23T05:16:03;9.90;99.90
29731;DHT22;16639;51.488;0.152;2023-03-23T05:18:31;10.30;99.90
29731;DHT22;16639;51.488;0.152;2023-03-23T05:21:03;10.30;99.90
29731;DHT22;16639;51.488;0.152;2023-03-23T05:23:29;10.30;99.90
29731;DHT22;16639;51.488;0.152;2023-03-23T05:25:57;10.30;99.90
29731;DHT22;16639;51.488;0.152;2023-03-23T05:28:27;10.30;99.90
29731;DHT22;16639;51.488;0.152;2023-03-23T05:30:54;10.30;99.90
29731;DHT22;16639;51.488;0.152;2023-03-23T05:33:23;10.30;99.90
29731;DHT22;16639;51.488;0.152;2023-03-23T05:35:49;10.30;99.90
29731;DHT22;16639;51.488;0.152;2023-03-23T05:38:16;10.30;99.90
29731;DHT22;16639;51.488;0.152;2023-03-23T05:40:42;10.30;99.90
29731;DHT22;16639;51.488;0.152;2023-03-23T05:43:09;10.30;99.90
29731;DHT22;16639;51.488;0.152;2023-03-23T05:45:36;10.20;99.90
29731;DHT22;16639;51.488;0.152;2023-03-23T05:48:02;10.20;99.90
29731;DHT22;16639;51.488;0.152;2023-03-23T05:50:29;10.20;99.90
29731;DHT22;16639;51.488;0.152;2023-03-23T05:52:55;10.30;99.90
29731;DHT22;16639;51.488;0.152;2023-03-23T05:55:23;10.30;99.90
29731;DHT22;16639;51.488;0.152;2023-03-23T05:57:49;10.30;99.90
29731;DHT22;16639;51.488;0.152;2023-03-23T06:00:15;10.30;99.90
29731;DHT22;16639;51.488;0.152;2023-03-23T06:02:49;10.30;99.90
29731;DHT22;16639;51.488;0.152;2023-03-23T06:05:17;10.30;99.90
29731;DHT22;16639;51.488;0.152;2023-03-23T06:07:43;10.10;99.90
29731;DHT22;16639;51.488;0.152;2023-03-23T06:10:09;10.30;99.90
29731;DHT22;16639;51.488;0.152;2023-03-23T06:12:37;10.20;99.90
29731;DHT22;16639;51.488;0.152;2023-03-23T06:15:06;10.20;99.90
29731;DHT22;16639;51.488;0.152;2023-03-23T06:17:34;10.20;99.90
29731;DHT22;16639;51.488;0.152;2023-03-23T06:20:03;10.10;99.90
29731;DHT22;16639;51.488;0.152;2023-03-23T06:22:34;10.10;99.90
29731;DHT22;16639;51.488;0.152;2023-03-23T06:25:03;10.10;99.90
29731;DHT22;16639;51.488;0.152;2023-03-23T06:27:30;10.10;99.90
29731;DHT22;16639;51.488;0.152;2023-03-23T06:29:57;10.10;99.90
29731;DHT22;16639;51.488;0.152;2023-03-23T06:32:26;10.10;99.90
29731;DHT22;16639;51.488;0.152;2023-03-23T06:34:54;10.10;99.90
29731;DHT22;16639;51.488;0.152;2023-03-23T06:37:20;9.50;99.90
29731;DHT22;16639;51.488;0.152;2023-03-23T06:39:46;10.30;99.90
29731;DHT22;16639;51.488;0.152;2023-03-23T06:42:14;10.10;99.90
29731;DHT22;16639;51.488;0.152;2023-03-23T06:44:40;10.20;99.90
29731;DHT22;16639;51.488;0.152;2023-03-23T06:47:06;10.20;99.90
29731;DHT22;16639;51.488;0.152;2023-03-23T06:49:34;10.20;99.90
29731;DHT22;16639;51.488;0.152;2023-03-23T06:52:00;10.20;99.90
29731;DHT22;16639;51.488;0.152;2023-03-23T06:54:29;10.20;99.90
29731;DHT22;16639;51.488;0.152;2023-03-23T06:56:55;10.20;99.90
29731;DHT22;16639;51.488;0.152;2023-03-23T06:59:22;10.20;99.90
29731;DHT22;16639;51.488;0.152;2023-03-23T07:01:48;10.20;99.90
29731;DHT22;16639;51.488;0.152;2023-03-23T07:04:14;10.20;99.90
29731;DHT22;16639;51.488;0.152;2023-03-23T07:06:42;10.30;99.90
29731;DHT22;16639;51.488;0.152;2023-03-23T07:09:08;10.30;99.90
29731;DHT22;16639;51.488;0.152;2023-03-23T07:11:34;10.30;99.90
29731;DHT22;16639;51.488;0.152;2023-03-23T07:14:00;10.40;99.90
29731;DHT22;16639;51.488;0.152;2023-03-23T07:16:27;11.00;99.90
29731;DHT22;16639;51.488;0.152;2023-03-23T07:18:53;10.30;99.90
29731;DHT22;16639;51.488;0.152;2023-03-23T07:21:19;10.40;99.90
29731;DHT22;16639;51.488;0.152;2023-03-23T07:23:45;10.40;99.90
29731;DHT22;16639;51.488;0.152;2023-03-23T07:26:12;10.60;99.90
29731;DHT22;16639;51.488;0.152;2023-03-23T07:28:39;10.50;99.90
29731;DHT22;16639;51.488;0.152;2023-03-23T07:31:07;10.50;99.90
29731;DHT22;16639;51.488;0.152;2023-03-23T07:33:35;10.50;99.90
29731;DHT22;16639;51.488;0.152;2023-03-23T07:36:02;10.60;99.90
29731;DHT22;16639;51.488;0.152;2023-03-23T07:38:30;10.60;99.90
29731;DHT22;16639;51.488;0.152;2023-03-23T07:40:56;10.70;99.90
29731;DHT22;16639;51.488;0.152;2023-03-23T07:43:23;10.70;99.90
29731;DHT22;16639;51.488;0.152;2023-03-23T07:45:49;10.70;99.90
29731;DHT22;16639;51.488;0.152;2023-03-23T07:48:16;10.70;99.90
29731;DHT22;16639;51.488;0.152;2023-03-23T07:50:42;10.80;99.90
29731;DHT22;16639;51.488;0.152;2023-03-23T07:53:09;10.60;99.90
29731;DHT22;16639;51.488;0.152;2023-03-23T07:55:36;10.90;99.90
29731;DHT22;16639;51.488;0.152;2023-03-23T07:58:03;10.90;99.90
29731;DHT22;16639;51.488;0.152;2023-03-23T08:00:29;11.00;99.90
29731;DHT22;16639;51.488;0.152;2023-03-23T08:02:57;11.10;99.90
29731;DHT22;16639;51.488;0.152;2023-03-23T08:05:24;11.10;99.90
29731;DHT22;16639;51.488;0.152;2023-03-23T08:07:53;11.20;99.90
29731;DHT22;16639;51.488;0.152;2023-03-23T08:10:22;11.20;99.90
29731;DHT22;16639;51.488;0.152;2023-03-23T08:12:55;11.30;99.90
29731;DHT22;16639;51.488;0.152;2023-03-23T08:15:22;11.30;99.90
29731;DHT22;16639;51.488;0.152;2023-03-23T08:17:49;11.30;99.90
29731;DHT22;16639;51.488;0.152;2023-03-23T08:20:18;11.40;99.90
29731;DHT22;16639;51.488;0.152;2023-03-23T08:22:50;11.40;99.90
29731;DHT22;16639;51.488;0.152;2023-03-23T08:25:19;11.40;99.90
29731;DHT22;16639;51.488;0.152;2023-03-23T08:27:45;11.50;99.90
29731;DHT22;16639;51.488;0.152;2023-03-23T08:30:17;11.50;99.90
29731;DHT22;16639;51.488;0.152;2023-03-23T08:32:46;11.50;99.90
29731;DHT22;16639;51.488;0.152;2023-03-23T08:35:14;11.60;99.90
29731;DHT22;16639;51.488;0.152;2023-03-23T08:37:41;11.60;99.90
29731;DHT22;16639;51.488;0.152;2023-03-23T08:40:12;11.60;99.90
29731;DHT22;16639;51.488;0.152;2023-03-23T08:42:42;11.70;99.90
29731;DHT22;16639;51.488;0.152;2023-03-23T08:45:12;11.70;99.90
29731;DHT22;16639;51.488;0.152;2023-03-23T08:47:39;11.80;99.90
29731;DHT22;16639;51.488;0.152;2023-03-23T08:50:08;11.80;99.90
29731;DHT22;16639;51.488;0.152;2023-03-23T08:52:37;11.90;99.90
29731;DHT22;16639;51.488;0.152;2023-03-23T08:55:04;12.00;99.90
29731;DHT22;16639;51.488;0.152;2023-03-23T08:57:31;12.00;99.90
29731;DHT22;16639;51.488;0.152;2023-03-23T08:59:57;12.10;99.90
29731;DHT22;16639;51.488;0.152;2023-03-23T09:02:26;12.20;99.90
29731;DHT22;16639;51.488;0.152;2023-03-23T09:04:53;12.20;99.90
29731;DHT22;16639;51.488;0.152;2023-03-23T09:07:20;12.30;99.90
29731;DHT22;16639;51.488;0.152;2023-03-23T09:09:46;12.30;99.90
29731;DHT22;16639;51.488;0.152;2023-03-23T09:12:12;12.40;99.90
29731;DHT22;16639;51.488;0.152;2023-03-23T09:14:39;12.40;99.90
29731;DHT22;16639;51.488;0.152;2023-03-23T09:17:07;12.40;99.90
29731;DHT22;16639;51.488;0.152;2023-03-23T09:19:34;12.40;99.90
29731;DHT22;16639;51.488;0.152;2023-03-23T09:22:01;12.50;99.90
29731;DHT22;16639;51.488;0.152;2023-03-23T09:24:27;12.50;99.90
29731;DHT22;16639;51.488;0.152;2023-03-23T09:26:53;12.60;99.90
29731;DHT22;16639;51.488;0.152;2023-03-23T09:29:20;12.70;99.90
29731;DHT22;16639;51.488;0.152;2023-03-23T09:31:47;12.80;99.90
29731;DHT22;16639;51.488;0.152;2023-03-23T09:34:14;12.90;99.90
29731;DHT22;16639;51.488;0.152;2023-03-23T09:36:44;12.80;99.90
29731;DHT22;16639;51.488;0.152;2023-03-23T09:39:11;12.90;99.90
29731;DHT22;16639;51.488;0.152;2023-03-23T09:50:15;13.40;99.90
29731;DHT22;16639;51.488;0.152;2023-03-23T09:52:54;13.20;99.90
29731;DHT22;16639;51.488;0.152;2023-03-23T09:55:22;13.20;99.90
29731;DHT22;16639;51.488;0.152;2023-03-23T10:00:34;13.10;99.90
29731;DHT22;16639;51.488;0.152;2023-03-23T10:03:14;13.20;99.90
29731;DHT22;16639;51.488;0.152;2023-03-23T10:05:49;13.20;99.90
29731;DHT22;16639;51.488;0.152;2023-03-23T10:08:19;13.20;99.90
29731;DHT22;16639;51.488;0.152;2023-03-23T10:16:05;13.30;99.90
29731;DHT22;16639;51.488;0.152;2023-03-23T10:21:27;13.20;99.90
29731;DHT22;16639;51.488;0.152;2023-03-23T10:24:04;13.10;99.90
29731;DHT22;16639;51.488;0.152;2023-03-23T10:26:54;13.10;99.90
29731;DHT22;16639;51.488;0.152;2023-03-23T10:29:57;13.10;99.90
29731;DHT22;16639;51.488;0.152;2023-03-23T10:32:41;13.20;99.90
29731;DHT22;16639;51.488;0.152;2023-03-23T10:35:17;13.10;99.90
29731;DHT22;16639;51.488;0.152;2023-03-23T10:37:53;13.20;99.90
29731;DHT22;16639;51.488;0.152;2023-03-23T10:40:24;13.20;99.90
29731;DHT22;16639;51.488;0.152;2023-03-23T10:42:52;13.30;99.90
29731;DHT22;16639;51.488;0.152;2023-03-23T10:45:28;13.30;99.90
29731;DHT22;16639;51.488;0.152;2023-03-23T10:48:21;13.20;99.90
29731;DHT22;16639;51.488;0.152;2023-03-23T10:50:54;13.30;99.90
29731;DHT22;16639;51.488;0.152;2023-03-23T10:53:32;13.30;99.90
29731;DHT22;16639;51.488;0.152;2023-03-23T10:55:59;13.30;99.90
29731;DHT22;16639;51.488;0.152;2023-03-23T10:58:28;13.30;99.90
29731;DHT22;16639;51.488;0.152;2023-03-23T11:00:56;13.20;99.90
29731;DHT22;16639;51.488;0.152;2023-03-23T11:05:54;13.20;99.90
29731;DHT22;16639;51.488;0.152;2023-03-23T11:08:25;13.10;99.90
29731;DHT22;16639;51.488;0.152;2023-03-23T11:10:53;13.10;99.90
29731;DHT22;16639;51.488;0.152;2023-03-23T11:13:22;13.00;99.90
29731;DHT22;16639;51.488;0.152;2023-03-23T11:15:50;13.10;99.90
29731;DHT22;16639;51.488;0.152;2023-03-23T11:18:21;13.00;99.90
29731;DHT22;16639;51.488;0.152;2023-03-23T11:20:55;13.00;99.90
29731;DHT22;16639;51.488;0.152;2023-03-23T11:23:43;13.00;99.90
29731;DHT22;16639;51.488;0.152;2023-03-23T11:28:52;13.00;99.90
29731;DHT22;16639;51.488;0.152;2023-03-23T11:31:23;13.00;99.90
29731;DHT22;16639;51.488;0.152;2023-03-23T11:34:30;12.80;99.90
29731;DHT22;16639;51.488;0.152;2023-03-23T11:36:53;13.00;99.90
29731;DHT22;16639;51.488;0.152;2023-03-23T11:39:33;13.00;99.90
29731;DHT22;16639;51.488;0.152;2023-03-23T11:42:19;13.00;99.90
29731;DHT22;16639;51.488;0.152;2023-03-23T11:44:45;12.30;99.90
29731;DHT22;16639;51.488;0.152;2023-03-23T11:47:30;13.20;99.90
29731;DHT22;16639;51.488;0.152;2023-03-23T11:50:18;13.20;99.90
29731;DHT22;16639;51.488;0.152;2023-03-23T11:53:10;13.00;99.90
29731;DHT22;16639;51.488;0.152;2023-03-23T11:58:13;12.60;99.90
29731;DHT22;16639;51.488;0.152;2023-03-23T12:00:51;13.10;99.90
29731;DHT22;16639;51.488;0.152;2023-03-23T12:03:41;13.20;99.90
29731;DHT22;16639;51.488;0.152;2023-03-23T12:06:15;13.40;99.90
29731;DHT22;16639;51.488;0.152;2023-03-23T12:11:33;13.70;99.90
29731;DHT22;16639;51.488;0.152;2023-03-23T12:22:40;13.80;99.90
29731;DHT22;16639;51.488;0.152;2023-03-23T12:28:27;13.80;99.90
29731;DHT22;16639;51.488;0.152;2023-03-23T12:31:24;13.10;99.90
29731;DHT22;16639;51.488;0.152;2023-03-23T12:36:53;13.70;99.90
29731;DHT22;16639;51.488;0.152;2023-03-23T12:42:46;13.90;99.90
29731;DHT22;16639;51.488;0.152;2023-03-23T12:48:12;13.90;99.90
29731;DHT22;16639;51.488;0.152;2023-03-23T12:50:44;13.90;99.90
29731;DHT22;16639;51.488;0.152;2023-03-23T12:53:22;13.90;99.90
29731;DHT22;16639;51.488;0.152;2023-03-23T12:56:07;14.00;99.90
29731;DHT22;16639;51.488;0.152;2023-03-23T12:58:42;14.00;99.90
29731;DHT22;16639;51.488;0.152;2023-03-23T13:01:14;14.00;99.90
29731;DHT22;16639;51.488;0.152;2023-03-23T13:04:24;14.00;99.90
29731;DHT22;16639;51.488;0.152;2023-03-23T13:06:48;14.10;99.90
29731;DHT22;16639;51.488;0.152;2023-03-23T13:12:08;14.20;99.90
29731;DHT22;16639;51.488;0.152;2023-03-23T13:23:23;14.50;99.90
29731;DHT22;16639;51.488;0.152;2023-03-23T13:28:34;14.70;99.90
29731;DHT22;16639;51.488;0.152;2023-03-23T13:31:16;14.70;99.90
29731;DHT22;16639;51.488;0.152;2023-03-23T13:33:49;14.70;99.90
29731;DHT22;16639;51.488;0.152;2023-03-23T13:36:19;14.70;99.90
29731;DHT22;16639;51.488;0.152;2023-03-23T13:38:50;14.80;99.90
29731;DHT22;16639;51.488;0.152;2023-03-23T13:41:19;14.70;99.90
29731;DHT22;16639;51.488;0.152;2023-03-23T13:43:47;14.70;99.90
29731;DHT22;16639;51.488;0.152;2023-03-23T13:49:44;14.60;99.90
29731;DHT22;16639;51.488;0.152;2023-03-23T13:51:56;14.60;99.90
29731;DHT22;16639;51.488;0.152;2023-03-23T13:57:01;14.50;99.90
29731;DHT22;16639;51.488;0.152;2023-03-23T13:59:32;14.50;99.90
29731;DHT22;16639;51.488;0.152;2023-03-23T14:05:07;14.80;99.90
29731;DHT22;16639;51.488;0.152;2023-03-23T14:07:54;14.70;99.90
29731;DHT22;16639;51.488;0.152;2023-03-23T14:10:21;14.40;99.90
29731;DHT22;16639;51.488;0.152;2023-03-23T14:12:50;14.80;99.90
29731;DHT22;16639;51.488;0.152;2023-03-23T14:15:18;14.80;99.90
29731;DHT22;16639;51.488;0.152;2023-03-23T14:17:45;15.20;99.90
29731;DHT22;16639;51.488;0.152;2023-03-23T14:20:25;14.70;99.90
29731;DHT22;16639;51.488;0.152;2023-03-23T14:22:55;14.70;99.90
29731;DHT22;16639;51.488;0.152;2023-03-23T14:25:27;14.70;99.90
29731;DHT22;16639;51.488;0.152;2023-03-23T14:27:54;14.50;99.90
29731;DHT22;16639;51.488;0.152;2023-03-23T14:30:24;14.70;99.90
29731;DHT22;16639;51.488;0.152;2023-03-23T14:32:52;14.70;99.90
29731;DHT22;16639;51.488;0.152;2023-03-23T14:35:32;14.70;99.90
29731;DHT22;16639;51.488;0.152;2023-03-23T14:37:58;14.70;99.90
29731;DHT22;16639;51.488;0.152;2023-03-23T14:40:29;14.70;99.90
29731;DHT22;16639;51.488;0.152;2023-03-23T14:42:56;14.60;99.90
29731;DHT22;16639;51.488;0.152;2023-03-23T14:45:24;14.60;99.90
29731;DHT22;16639;51.488;0.152;2023-03-23T14:48:00;14.60;99.90
29731;DHT22;16639;51.488;0.152;2023-03-23T14:50:39;14.60;99.90
29731;DHT22;16639;51.488;0.152;2023-03-23T14:53:48;14.20;99.90
29731;DHT22;16639;51.488;0.152;2023-03-23T14:56:14;14.50;99.90
29731;DHT22;16639;51.488;0.152;2023-03-23T14:58:49;14.50;99.90
29731;DHT22;16639;51.488;0.152;2023-03-23T15:01:25;14.40;99.90
29731;DHT22;16639;51.488;0.152;2023-03-23T15:06:26;14.30;99.90
29731;DHT22;16639;51.488;0.152;2023-03-23T15:08:56;13.30;99.90
29731;DHT22;16639;51.488;0.152;2023-03-23T15:11:29;14.20;99.90
29731;DHT22;16639;51.488;0.152;2023-03-23T15:13:58;14.10;99.90
29731;DHT22;16639;51.488;0.152;2023-03-23T15:16:27;14.10;99.90
29731;DHT22;16639;51.488;0.152;2023-03-23T15:19:06;14.00;99.90
29731;DHT22;16639;51.488;0.152;2023-03-23T15:21:53;13.90;99.90
29731;DHT22;16639;51.488;0.152;2023-03-23T15:27:15;13.80;99.90
29731;DHT22;16639;51.488;0.152;2023-03-23T15:29:53;13.70;99.90
29731;DHT22;16639;51.488;0.152;2023-03-23T15:32:31;13.60;99.90
29731;DHT22;16639;51.488;0.152;2023-03-23T15:35:14;13.60;99.90
29731;DHT22;16639;51.488;0.152;2023-03-23T15:37:51;13.50;99.90
29731;DHT22;16639;51.488;0.152;2023-03-23T15:40:21;13.40;99.90
29731;DHT22;16639;51.488;0.152;2023-03-23T15:42:49;13.40;99.90
29731;DHT22;16639;51.488;0.152;2023-03-23T15:45:27;13.40;99.90
29731;DHT22;16639;51.488;0.152;2023-03-23T15:47:57;13.30;99.90
29731;DHT22;16639;51.488;0.152;2023-03-23T15:52:52;13.30;99.90
29731;DHT22;16639;51.488;0.152;2023-03-23T15:55:28;13.20;99.90
29731;DHT22;16639;51.488;0.152;2023-03-23T15:57:56;14.40;99.90
29731;DHT22;16639;51.488;0.152;2023-03-23T16:00:26;13.20;99.90
29731;DHT22;16639;51.488;0.152;2023-03-23T16:03:00;13.20;99.90
29731;DHT22;16639;51.488;0.152;2023-03-23T16:05:28;13.20;99.90
29731;DHT22;16639;51.488;0.152;2023-03-23T16:07:59;13.20;99.90
29731;DHT22;16639;51.488;0.152;2023-03-23T16:10:28;13.10;99.90
29731;DHT22;16639;51.488;0.152;2023-03-23T16:12:56;13.10;99.90
29731;DHT22;16639;51.488;0.152;2023-03-23T16:15:24;13.10;99.90
29731;DHT22;16639;51.488;0.152;2023-03-23T16:17:51;13.40;99.90
29731;DHT22;16639;51.488;0.152;2023-03-23T16:20:21;13.00;99.90
29731;DHT22;16639;51.488;0.152;2023-03-23T16:22:50;13.00;99.90
29731;DHT22;16639;51.488;0.152;2023-03-23T16:25:18;12.90;99.90
29731;DHT22;16639;51.488;0.152;2023-03-23T16:27:46;12.90;99.90
29731;DHT22;16639;51.488;0.152;2023-03-23T16:30:21;12.80;99.90
29731;DHT22;16639;51.488;0.152;2023-03-23T16:32:50;12.70;99.90
29731;DHT22;16639;51.488;0.152;2023-03-23T16:35:21;12.70;99.90
29731;DHT22;16639;51.488;0.152;2023-03-23T16:37:51;12.60;99.90
29731;DHT22;16639;51.488;0.152;2023-03-23T16:40:36;12.50;99.90
29731;DHT22;16639;51.488;0.152;2023-03-23T16:43:04;12.40;99.90
29731;DHT22;16639;51.488;0.152;2023-03-23T16:45:37;12.40;99.90
29731;DHT22;16639;51.488;0.152;2023-03-23T16:48:09;12.40;99.90
29731;DHT22;16639;51.488;0.152;2023-03-23T16:50:37;12.30;99.90
29731;DHT22;16639;51.488;0.152;2023-03-23T16:58:19;12.10;99.90
29731;DHT22;16639;51.488;0.152;2023-03-23T17:06:55;12.00;99.90
29731;DHT22;16639;51.488;0.152;2023-03-23T17:11:08;11.90;99.90
29731;DHT22;16639;51.488;0.152;2023-03-23T17:22:38;11.80;99.90
29731;DHT22;16639;51.488;0.152;2023-03-23T17:26:54;11.80;99.90
29731;DHT22;16639;51.488;0.152;2023-03-23T17:39:23;12.30;99.90
29731;DHT22;16639;51.488;0.152;2023-03-23T17:50:54;11.50;99.90
29731;DHT22;16639;51.488;0.152;2023-03-23T17:53:25;11.60;99.90
29731;DHT22;16639;51.488;0.152;2023-03-23T17:55:52;11.50;99.90
29731;DHT22;16639;51.488;0.152;2023-03-23T17:58:20;11.40;99.90
29731;DHT22;16639;51.488;0.152;2023-03-23T18:00:47;11.50;99.90
29731;DHT22;16639;51.488;0.152;2023-03-23T18:03:15;11.50;99.90
29731;DHT22;16639;51.488;0.152;2023-03-23T18:05:42;11.50;99.90
29731;DHT22;16639;51.488;0.152;2023-03-23T18:08:10;11.50;99.90
29731;DHT22;16639;51.488;0.152;2023-03-23T18:10:39;11.40;99.90
29731;DHT22;16639;51.488;0.152;2023-03-23T18:13:07;11.40;99.90
29731;DHT22;16639;51.488;0.152;2023-03-23T18:15:35;11.80;99.90
29731;DHT22;16639;51.488;0.152;2023-03-23T18:18:04;11.40;99.90
29731;DHT22;16639;51.488;0.152;2023-03-23T18:20:32;11.40;99.90
29731;DHT22;16639;51.488;0.152;2023-03-23T18:22:59;11.40;99.90
29731;DHT22;16639;51.488;0.152;2023-03-23T18:25:30;11.40;99.90